createdAt,value
2022-12-25T00:00:36.559Z,6.60
2022-12-25T00:03:03.113Z,6.93
2022-12-25T00:05:29.629Z,6.70
2022-12-25T00:07:56.139Z,6.13
2022-12-25T00:10:22.730Z,6.37
2022-12-25T00:12:49.687Z,6.20
2022-12-25T00:15:16.274Z,7.17
2022-12-25T00:17:42.866Z,6.53
2022-12-25T00:20:10.077Z,6.73
2022-12-25T00:22:36.525Z,6.37
2022-12-25T00:25:03.178Z,6.57
2022-12-25T00:27:33.744Z,6.50
2022-12-25T00:30:01.579Z,6.13
2022-12-25T00:32:28.197Z,6.50
2022-12-25T00:34:54.654Z,6.23
2022-12-25T00:37:21.275Z,5.33
2022-12-25T00:39:49.297Z,6.00
2022-12-25T00:42:18.862Z,6.60
2022-12-25T00:44:46.435Z,5.47
2022-12-25T00:47:13.223Z,6.47
2022-12-25T00:49:39.727Z,5.63
2022-12-25T00:52:06.624Z,5.80
2022-12-25T00:54:33.199Z,6.10
2022-12-25T00:56:59.661Z,6.00
2022-12-25T00:59:26.189Z,6.27
2022-12-25T01:01:52.784Z,5.90
2022-12-25T01:04:19.467Z,5.80
2022-12-25T01:06:45.849Z,5.50
2022-12-25T01:09:30.702Z,5.47
2022-12-25T01:11:57.177Z,5.90
2022-12-25T01:14:23.603Z,5.30
2022-12-25T01:16:50.101Z,5.27
2022-12-25T01:19:16.680Z,6.10
2022-12-25T01:21:43.137Z,4.93
2022-12-25T01:24:09.570Z,5.37
2022-12-25T01:26:36.058Z,5.50
2022-12-25T01:29:02.605Z,5.00
2022-12-25T01:31:29.094Z,5.53
2022-12-25T01:33:55.624Z,5.40
2022-12-25T01:36:26.175Z,5.37
2022-12-25T01:38:53.948Z,5.13
2022-12-25T01:41:22.947Z,5.60
2022-12-25T01:44:18.840Z,5.40
2022-12-25T01:46:45.877Z,4.97
2022-12-25T01:49:15.792Z,4.97
2022-12-25T01:51:50.306Z,4.67
2022-12-25T01:54:34.603Z,5.57
2022-12-25T01:57:05.610Z,5.20
2022-12-25T01:59:32.309Z,5.23
2022-12-25T02:02:00.690Z,5.17
2022-12-25T02:04:38.847Z,5.57
2022-12-25T02:07:06.835Z,5.87
2022-12-25T02:09:33.413Z,5.53
2022-12-25T02:12:00.511Z,5.40
2022-12-25T02:14:29.761Z,4.60
2022-12-25T02:17:19.357Z,5.43
2022-12-25T02:20:21.292Z,4.70
2022-12-25T02:23:09.178Z,5.40
2022-12-25T02:25:35.628Z,5.60
2022-12-25T02:28:19.826Z,5.83
2022-12-25T02:30:52.262Z,4.77
2022-12-25T02:33:57.251Z,5.57
2022-12-25T02:36:29.489Z,5.30
2022-12-25T02:39:18.789Z,5.33
2022-12-25T02:41:47.838Z,5.87
2022-12-25T02:44:38.214Z,6.43
2022-12-25T02:47:26.316Z,5.63
2022-12-25T02:50:13.331Z,5.37
2022-12-25T02:53:00.704Z,4.97
2022-12-25T02:55:53.552Z,5.57
2022-12-25T02:58:42.588Z,5.67
2022-12-25T03:01:33.634Z,5.57
2022-12-25T03:04:24.290Z,5.87
2022-12-25T03:07:03.529Z,5.53
2022-12-25T03:10:10.841Z,5.70
2022-12-25T03:12:50.609Z,4.70
2022-12-25T03:15:37.613Z,5.83
2022-12-25T03:18:10.117Z,5.73
2022-12-25T03:20:56.393Z,4.70
2022-12-25T03:23:47.517Z,5.00
2022-12-25T03:26:32.905Z,5.10
2022-12-25T03:28:59.417Z,5.10
2022-12-25T03:31:53.650Z,6.00
2022-12-25T03:34:56.849Z,4.47
2022-12-25T03:38:09.396Z,5.20
2022-12-25T03:41:17.472Z,4.87
2022-12-25T03:44:09.991Z,4.70
2022-12-25T03:47:09.652Z,4.93
2022-12-25T03:50:09.100Z,4.63
2022-12-25T03:52:55.655Z,4.97
2022-12-25T03:55:42.694Z,4.63
2022-12-25T03:58:43.069Z,4.97
2022-12-25T04:01:28.794Z,5.43
2022-12-25T04:04:13.826Z,5.07
2022-12-25T04:06:59.052Z,4.90
2022-12-25T04:09:44.665Z,4.53
2022-12-25T04:12:29.904Z,4.30
2022-12-25T04:15:14.735Z,5.03
2022-12-25T04:17:59.850Z,4.37
2022-12-25T04:20:44.944Z,5.07
2022-12-25T04:23:30.103Z,4.80
2022-12-25T04:26:18.013Z,4.47
2022-12-25T04:29:02.872Z,4.83
2022-12-25T04:31:47.744Z,4.80
2022-12-25T04:34:32.730Z,5.30
2022-12-25T04:36:59.162Z,5.13
2022-12-25T04:39:25.745Z,3.73
2022-12-25T04:41:52.170Z,4.50
2022-12-25T04:44:18.638Z,4.70
2022-12-25T04:46:45.160Z,5.03
2022-12-25T04:49:11.580Z,5.27
2022-12-25T04:51:38.138Z,4.90
2022-12-25T04:54:04.745Z,4.90
2022-12-25T04:56:31.136Z,4.80
2022-12-25T04:58:57.583Z,4.37
2022-12-25T05:01:24.141Z,4.70
2022-12-25T05:03:50.804Z,4.93
2022-12-25T05:06:17.367Z,4.30
2022-12-25T05:08:43.873Z,4.77
2022-12-25T05:11:13.392Z,4.33
2022-12-25T05:13:40.267Z,4.40
2022-12-25T05:16:09.509Z,4.67
2022-12-25T05:18:35.971Z,4.27
2022-12-25T05:21:02.966Z,4.50
2022-12-25T05:23:29.454Z,4.00
2022-12-25T05:25:55.999Z,4.30
2022-12-25T05:28:22.424Z,4.20
2022-12-25T05:30:49.036Z,4.43
2022-12-25T05:33:15.524Z,4.80
2022-12-25T05:35:42.045Z,4.17
2022-12-25T05:38:08.754Z,4.67
2022-12-25T05:40:40.071Z,4.70
2022-12-25T05:43:07.413Z,3.43
2022-12-25T05:45:33.946Z,4.20
2022-12-25T05:48:00.455Z,4.30
2022-12-25T05:50:26.964Z,3.80
2022-12-25T05:52:53.405Z,4.97
2022-12-25T05:55:19.858Z,4.30
2022-12-25T05:57:46.328Z,3.47
2022-12-25T06:00:13.008Z,3.97
2022-12-25T06:02:39.757Z,3.67
2022-12-25T06:05:06.763Z,3.83
2022-12-25T06:07:33.169Z,3.73
2022-12-25T06:09:59.616Z,4.00
2022-12-25T06:12:26.052Z,3.23
2022-12-25T06:14:52.425Z,3.97
2022-12-25T06:17:18.921Z,4.40
2022-12-25T06:19:45.442Z,3.10
2022-12-25T06:22:11.847Z,3.73
2022-12-25T06:24:38.548Z,3.53
2022-12-25T06:27:05.008Z,3.93
2022-12-25T06:29:31.409Z,3.60
2022-12-25T06:31:59.027Z,3.60
2022-12-25T06:34:25.904Z,4.27
2022-12-25T06:36:52.398Z,3.93
2022-12-25T06:39:19.151Z,4.37
2022-12-25T06:41:45.612Z,4.07
2022-12-25T06:44:12.119Z,4.13
2022-12-25T06:46:38.813Z,3.53
2022-12-25T06:49:05.603Z,4.43
2022-12-25T06:51:32.624Z,4.10
2022-12-25T06:53:59.935Z,4.40
2022-12-25T06:56:27.894Z,3.90
2022-12-25T06:58:56.542Z,4.60
2022-12-25T07:01:24.720Z,3.93
2022-12-25T07:03:54.813Z,3.70
2022-12-25T07:06:21.563Z,3.80
2022-12-25T07:08:48.135Z,4.23
2022-12-25T07:11:14.791Z,4.30
2022-12-25T07:13:41.387Z,3.60
2022-12-25T07:16:08.132Z,4.53
2022-12-25T07:18:35.333Z,4.17
2022-12-25T07:21:13.126Z,4.50
2022-12-25T07:23:40.268Z,3.93
2022-12-25T07:26:07.354Z,4.47
2022-12-25T07:28:34.264Z,3.77
2022-12-25T07:31:09.784Z,3.60
2022-12-25T07:33:36.452Z,4.37
2022-12-25T07:36:05.361Z,3.90
2022-12-25T07:38:32.747Z,4.20
2022-12-25T07:40:59.358Z,3.47
2022-12-25T07:43:25.940Z,4.03
2022-12-25T07:45:57.628Z,4.33
2022-12-25T07:48:27.779Z,4.03
2022-12-25T07:50:58.997Z,4.27
2022-12-25T07:53:26.232Z,4.23
2022-12-25T07:55:57.398Z,4.07
2022-12-25T07:58:24.275Z,3.70
2022-12-25T08:00:50.944Z,3.90
2022-12-25T08:03:17.845Z,4.33
2022-12-25T08:05:44.669Z,3.50
2022-12-25T08:08:11.094Z,3.63
2022-12-25T08:10:37.623Z,3.50
2022-12-25T08:13:07.642Z,4.70
2022-12-25T08:15:37.291Z,4.00
2022-12-25T08:18:03.727Z,4.13
2022-12-25T08:20:30.159Z,4.27
2022-12-25T08:22:56.701Z,4.27
2022-12-25T08:25:23.116Z,4.90
2022-12-25T08:27:49.551Z,4.87
2022-12-25T08:30:16.082Z,4.57
2022-12-25T08:32:42.565Z,4.60
2022-12-25T08:35:09.259Z,4.60
2022-12-25T08:37:35.797Z,4.63
2022-12-25T08:40:02.292Z,4.10
2022-12-25T08:42:28.754Z,3.90
2022-12-25T08:44:55.214Z,4.27
2022-12-25T08:47:21.697Z,4.53
2022-12-25T08:49:48.107Z,4.27
2022-12-25T08:52:15.401Z,3.87
2022-12-25T08:54:41.886Z,4.53
2022-12-25T08:57:08.344Z,5.70
2022-12-25T08:59:34.859Z,4.90
2022-12-25T09:02:01.426Z,4.23
2022-12-25T09:04:28.236Z,4.57
2022-12-25T09:06:54.908Z,4.53
2022-12-25T09:09:21.321Z,4.40
2022-12-25T09:11:49.036Z,5.00
2022-12-25T09:14:15.416Z,4.93
2022-12-25T09:16:42.023Z,4.33
2022-12-25T09:19:08.433Z,4.93
2022-12-25T09:21:36.868Z,4.50
2022-12-25T09:24:04.626Z,5.03
2022-12-25T09:26:31.060Z,4.67
2022-12-25T09:28:57.544Z,4.37
2022-12-25T09:31:24.389Z,4.40
2022-12-25T09:33:51.458Z,4.20
2022-12-25T09:36:21.291Z,4.57
2022-12-25T09:38:47.726Z,5.07
2022-12-25T09:41:26.907Z,4.77
2022-12-25T09:43:58.800Z,4.93
2022-12-25T09:46:34.805Z,4.97
2022-12-25T09:49:12.221Z,4.17
2022-12-25T09:51:42.468Z,5.40
2022-12-25T09:54:27.242Z,5.13
2022-12-25T09:56:53.725Z,4.40
2022-12-25T09:59:27.415Z,4.70
2022-12-25T10:02:25.151Z,4.10
2022-12-25T10:05:26.391Z,4.53
2022-12-25T10:07:55.851Z,5.03
2022-12-25T10:10:40.959Z,4.53
2022-12-25T10:13:30.768Z,4.27
2022-12-25T10:16:17.916Z,4.70
2022-12-25T10:18:44.739Z,4.63
2022-12-25T10:21:14.531Z,4.93
2022-12-25T10:23:45.926Z,5.17
2022-12-25T10:26:18.453Z,5.00
2022-12-25T10:28:47.636Z,4.77
2022-12-25T10:31:26.348Z,4.57
2022-12-25T10:33:54.045Z,4.77
2022-12-25T10:36:24.097Z,4.87
2022-12-25T10:38:51.297Z,4.27
2022-12-25T10:42:07.796Z,5.07
2022-12-25T10:44:34.847Z,4.50
2022-12-25T10:47:03.687Z,4.37
2022-12-25T10:49:36.827Z,4.90
2022-12-25T10:52:04.516Z,4.43
2022-12-25T10:54:36.102Z,4.90
2022-12-25T10:57:13.452Z,4.67
2022-12-25T10:59:44.294Z,4.77
2022-12-25T11:02:24.988Z,4.23
2022-12-25T11:05:01.609Z,4.20
2022-12-25T11:07:28.591Z,5.07
2022-12-25T11:10:04.730Z,5.10
2022-12-25T11:12:38.294Z,4.77
2022-12-25T11:15:27.360Z,5.47
2022-12-25T11:17:53.821Z,4.80
2022-12-25T11:20:20.837Z,4.47
2022-12-25T11:22:49.638Z,4.17
2022-12-25T11:25:25.845Z,4.70
2022-12-25T11:28:01.456Z,4.80
2022-12-25T11:30:31.204Z,5.07
2022-12-25T11:33:04.171Z,4.70
2022-12-25T11:35:35.093Z,4.90
2022-12-25T11:38:03.191Z,4.87
2022-12-25T11:40:41.296Z,4.70
2022-12-25T11:43:23.479Z,5.00
2022-12-25T11:46:05.332Z,4.87
2022-12-25T11:48:45.812Z,5.13
2022-12-25T11:51:15.051Z,4.63
2022-12-25T11:53:48.533Z,4.80
2022-12-25T11:56:18.558Z,4.60
2022-12-25T11:58:49.149Z,4.37
2022-12-25T12:01:57.811Z,5.17
2022-12-25T12:04:43.197Z,4.47
2022-12-25T12:07:29.847Z,5.17
2022-12-25T12:10:21.296Z,4.67
2022-12-25T12:13:05.059Z,5.07
2022-12-25T12:15:46.099Z,4.43
2022-12-25T12:18:29.515Z,4.83
2022-12-25T12:21:10.668Z,4.90
2022-12-25T12:23:51.604Z,5.00
2022-12-25T12:26:23.730Z,4.53
2022-12-25T12:28:54.126Z,5.63
2022-12-25T12:31:21.255Z,8.00
2022-12-25T12:33:54.510Z,8.07
2022-12-25T12:36:34.425Z,5.10
2022-12-25T12:39:02.066Z,5.00
2022-12-25T12:41:45.161Z,4.40
2022-12-25T12:44:12.796Z,4.67
2022-12-25T12:46:51.139Z,5.60
2022-12-25T12:49:23.414Z,6.53
2022-12-25T12:51:50.673Z,6.77
2022-12-25T12:54:20.842Z,6.10
2022-12-25T12:57:00.861Z,4.77
2022-12-25T12:59:46.911Z,5.00
2022-12-25T13:02:41.206Z,7.23
2022-12-25T13:05:34.401Z,14.50
2022-12-25T13:08:07.068Z,5.93
2022-12-25T13:10:37.114Z,9.63
2022-12-25T13:13:14.045Z,6.37
2022-12-25T13:15:40.997Z,6.20
2022-12-25T13:18:12.265Z,6.20
2022-12-25T13:20:46.784Z,5.37
2022-12-25T13:23:28.599Z,5.80
2022-12-25T13:26:00.514Z,6.40
2022-12-25T13:28:35.168Z,5.13
2022-12-25T13:31:17.240Z,5.33
2022-12-25T13:33:52.486Z,5.50
2022-12-25T13:36:19.255Z,5.13
2022-12-25T13:38:47.348Z,5.90
2022-12-25T13:41:38.773Z,5.30
2022-12-25T13:44:26.242Z,5.07
2022-12-25T13:46:52.699Z,5.70
2022-12-25T13:49:23.848Z,5.70
2022-12-25T13:51:51.058Z,5.77
2022-12-25T13:54:18.773Z,6.90
2022-12-25T13:56:50.527Z,6.00
2022-12-25T13:59:19.931Z,5.90
2022-12-25T14:01:47.678Z,5.63
2022-12-25T14:04:22.375Z,5.73
2022-12-25T14:06:50.596Z,5.83
2022-12-25T14:09:18.291Z,5.67
2022-12-25T14:11:49.653Z,5.30
2022-12-25T14:14:23.298Z,5.60
2022-12-25T14:16:53.473Z,7.07
2022-12-25T14:19:27.635Z,5.27
2022-12-25T14:22:04.381Z,5.53
2022-12-25T14:24:34.809Z,5.97
2022-12-25T14:27:07.209Z,5.93
2022-12-25T14:29:42.681Z,7.03
2022-12-25T14:32:16.259Z,6.43
2022-12-25T14:34:46.169Z,6.47
2022-12-25T14:37:19.431Z,12.40
2022-12-25T14:40:01.358Z,14.40
2022-12-25T14:42:32.789Z,11.47
2022-12-25T14:45:03.928Z,6.37
2022-12-25T14:47:33.569Z,5.67
2022-12-25T14:50:01.999Z,5.77
2022-12-25T14:52:38.856Z,7.73
2022-12-25T14:55:07.972Z,7.13
2022-12-25T14:57:40.415Z,7.93
2022-12-25T15:00:29.769Z,8.40
2022-12-25T15:02:58.411Z,8.97
2022-12-25T15:05:38.856Z,8.07
2022-12-25T15:08:25.722Z,8.67
2022-12-25T15:11:02.630Z,8.70
2022-12-25T15:13:31.304Z,8.33
2022-12-25T15:16:19.580Z,8.90
2022-12-25T15:18:48.931Z,9.20
2022-12-25T15:21:17.824Z,9.33
2022-12-25T15:23:44.663Z,10.67
2022-12-25T15:26:14.760Z,9.73
2022-12-25T15:28:41.803Z,9.00
2022-12-25T15:31:25.623Z,8.23
2022-12-25T15:33:55.327Z,7.67
2022-12-25T15:36:22.344Z,7.30
2022-12-25T15:38:49.034Z,7.53
2022-12-25T15:41:37.705Z,7.03
2022-12-25T15:44:05.977Z,7.03
2022-12-25T15:46:33.117Z,7.37
2022-12-25T15:49:00.485Z,7.10
2022-12-25T15:51:27.029Z,6.93
2022-12-25T15:53:53.482Z,8.47
2022-12-25T15:56:20.262Z,9.17
2022-12-25T15:58:46.727Z,9.53
2022-12-25T16:01:15.598Z,10.77
2022-12-25T16:03:45.332Z,8.37
2022-12-25T16:06:17.546Z,12.93
2022-12-25T16:08:44.357Z,7.70
2022-12-25T16:11:11.406Z,7.67
2022-12-25T16:13:38.032Z,7.50
2022-12-25T16:16:05.167Z,7.20
2022-12-25T16:18:31.634Z,7.10
2022-12-25T16:20:59.416Z,6.43
2022-12-25T16:23:25.988Z,6.97
2022-12-25T16:25:52.553Z,6.77
2022-12-25T16:28:19.015Z,8.93
2022-12-25T16:30:47.128Z,6.70
2022-12-25T16:33:13.737Z,7.03
2022-12-25T16:35:40.265Z,6.97
2022-12-25T16:38:06.844Z,7.67
2022-12-25T16:40:33.309Z,6.93
2022-12-25T16:42:59.839Z,7.00
2022-12-25T16:45:26.331Z,6.53
2022-12-25T16:47:52.795Z,6.70
2022-12-25T16:50:19.251Z,8.10
2022-12-25T16:52:45.744Z,7.73
2022-12-25T16:55:12.246Z,8.33
2022-12-25T16:57:38.775Z,8.97
2022-12-25T17:00:05.878Z,8.60
2022-12-25T17:02:32.666Z,8.50
2022-12-25T17:05:00.435Z,8.47
2022-12-25T17:07:27.209Z,7.67
2022-12-25T17:09:53.713Z,7.80
2022-12-25T17:12:20.194Z,8.63
2022-12-25T17:14:46.770Z,8.00
2022-12-25T17:17:13.253Z,7.23
2022-12-25T17:19:39.725Z,7.03
2022-12-25T17:22:07.419Z,6.40
2022-12-25T17:24:36.268Z,7.97
2022-12-25T17:27:03.837Z,8.47
2022-12-25T17:29:31.875Z,8.50
2022-12-25T17:31:58.360Z,9.20
2022-12-25T17:34:24.809Z,10.27
2022-12-25T17:36:53.359Z,9.43
2022-12-25T17:39:19.846Z,8.60
2022-12-25T17:41:48.515Z,10.07
2022-12-25T17:44:14.977Z,9.90
2022-12-25T17:46:42.069Z,8.23
2022-12-25T17:49:15.103Z,8.77
2022-12-25T17:51:41.810Z,9.23
2022-12-25T17:54:09.023Z,8.80
2022-12-25T17:56:35.713Z,9.00
2022-12-25T17:59:06.850Z,8.17
2022-12-25T18:01:35.618Z,9.83
2022-12-25T18:04:02.847Z,10.00
2022-12-25T18:06:29.672Z,10.27
2022-12-25T18:08:58.072Z,10.23
2022-12-25T18:11:29.204Z,19.43
2022-12-25T18:13:57.983Z,18.33
2022-12-25T18:16:27.028Z,15.63
2022-12-25T18:18:54.088Z,16.37
2022-12-25T18:21:22.271Z,15.20
2022-12-25T18:23:49.633Z,14.97
2022-12-25T18:26:19.082Z,17.00
2022-12-25T18:28:45.947Z,15.03
2022-12-25T18:31:32.915Z,14.90
2022-12-25T18:34:00.010Z,17.53
2022-12-25T18:36:27.873Z,17.37
2022-12-25T18:38:55.308Z,14.73
2022-12-25T18:41:22.261Z,15.87
2022-12-25T18:43:53.663Z,13.40
2022-12-25T18:46:26.327Z,14.70
2022-12-25T18:48:56.805Z,12.77
2022-12-25T18:51:23.710Z,12.43
2022-12-25T18:53:51.188Z,11.57
2022-12-25T18:56:18.379Z,12.13
2022-12-25T18:58:46.380Z,13.00
2022-12-25T19:01:16.341Z,11.30
2022-12-25T19:03:44.052Z,10.93
2022-12-25T19:06:17.444Z,10.53
2022-12-25T19:08:43.943Z,12.43
2022-12-25T19:11:10.400Z,11.93
2022-12-25T19:13:36.852Z,11.53
2022-12-25T19:16:03.964Z,12.07
2022-12-25T19:18:30.692Z,11.90
2022-12-25T19:21:00.339Z,15.00
2022-12-25T19:23:26.829Z,13.80
2022-12-25T19:25:53.277Z,10.37
2022-12-25T19:28:19.764Z,10.80
2022-12-25T19:30:46.292Z,9.20
2022-12-25T19:33:17.729Z,9.30
2022-12-25T19:35:44.739Z,9.83
2022-12-25T19:38:11.185Z,9.50
2022-12-25T19:40:41.198Z,9.53
2022-12-25T19:43:07.653Z,8.50
2022-12-25T19:45:34.136Z,10.57
2022-12-25T19:48:00.746Z,13.03
2022-12-25T19:50:31.766Z,13.10
2022-12-25T19:52:58.344Z,12.40
2022-12-25T19:55:24.840Z,13.50
2022-12-25T19:57:51.412Z,14.67
2022-12-25T20:00:18.133Z,15.20
2022-12-25T20:02:44.662Z,13.97
2022-12-25T20:05:11.382Z,11.83
2022-12-25T20:07:37.822Z,12.30
2022-12-25T20:10:04.515Z,14.77
2022-12-25T20:12:32.225Z,19.30
2022-12-25T20:14:58.836Z,16.67
2022-12-25T20:17:25.418Z,15.63
2022-12-25T20:19:53.874Z,15.13
2022-12-25T20:22:20.315Z,14.83
2022-12-25T20:24:49.082Z,14.23
2022-12-25T20:27:15.630Z,12.33
2022-12-25T20:29:42.118Z,11.00
2022-12-25T20:32:09.550Z,11.07
2022-12-25T20:34:36.315Z,10.77
2022-12-25T20:37:02.891Z,9.93
2022-12-25T20:39:29.471Z,11.63
2022-12-25T20:41:55.960Z,12.07
2022-12-25T20:44:22.437Z,10.43
2022-12-25T20:46:49.012Z,10.77
2022-12-25T20:49:15.532Z,12.07
2022-12-25T20:51:41.972Z,13.23
2022-12-25T20:54:10.151Z,13.07
2022-12-25T20:56:36.732Z,12.10
2022-12-25T20:59:03.182Z,11.47
2022-12-25T21:01:31.126Z,12.07
2022-12-25T21:03:58.803Z,11.60
2022-12-25T21:06:25.626Z,13.03
2022-12-25T21:08:52.141Z,14.20
2022-12-25T21:11:18.821Z,13.13
2022-12-25T21:13:46.193Z,14.30
2022-12-25T21:16:19.808Z,17.57
2022-12-25T21:18:47.027Z,14.20
2022-12-25T21:21:14.418Z,12.57
2022-12-25T21:23:41.348Z,10.63
2022-12-25T21:26:16.836Z,12.23
2022-12-25T21:28:43.329Z,12.33
2022-12-25T21:31:10.351Z,10.60
2022-12-25T21:33:52.852Z,11.50
2022-12-25T21:36:28.562Z,10.60
2022-12-25T21:39:03.858Z,11.00
2022-12-25T21:41:31.867Z,11.57
2022-12-25T21:43:59.030Z,10.67
2022-12-25T21:46:26.270Z,10.10
2022-12-25T21:48:53.545Z,10.60
2022-12-25T21:51:41.310Z,11.03
2022-12-25T21:54:08.861Z,10.77
2022-12-25T21:56:43.413Z,9.20
2022-12-25T21:59:13.667Z,10.43
2022-12-25T22:01:40.180Z,9.97
2022-12-25T22:04:08.388Z,10.03
2022-12-25T22:06:54.105Z,9.10
2022-12-25T22:09:21.282Z,9.27
2022-12-25T22:12:06.255Z,9.10
2022-12-25T22:14:55.011Z,8.37
2022-12-25T22:17:46.327Z,8.80
2022-12-25T22:20:17.587Z,9.37
2022-12-25T22:22:44.927Z,9.40
2022-12-25T22:25:12.634Z,8.80
2022-12-25T22:27:40.561Z,9.33
2022-12-25T22:30:11.478Z,9.67
2022-12-25T22:32:38.185Z,9.27
2022-12-25T22:35:05.460Z,9.13
2022-12-25T22:37:31.969Z,8.93
2022-12-25T22:39:58.819Z,8.70
2022-12-25T22:42:25.365Z,8.50
2022-12-25T22:44:51.795Z,8.23
2022-12-25T22:47:18.339Z,7.87
2022-12-25T22:49:44.792Z,8.10
2022-12-25T22:52:11.373Z,7.93
2022-12-25T22:54:38.167Z,8.63
2022-12-25T22:57:04.786Z,8.27
2022-12-25T22:59:33.056Z,8.00
2022-12-25T23:02:00.718Z,8.23
2022-12-25T23:04:28.502Z,8.13
2022-12-25T23:06:55.069Z,8.63
2022-12-25T23:09:27.421Z,8.53
2022-12-25T23:11:56.470Z,8.93
2022-12-25T23:14:38.832Z,8.70
2022-12-25T23:17:28.122Z,8.83
2022-12-25T23:20:13.615Z,7.20
2022-12-25T23:22:59.129Z,10.20
2022-12-25T23:25:44.196Z,8.73
2022-12-25T23:28:10.701Z,9.10
2022-12-25T23:30:38.322Z,8.63
2022-12-25T23:33:04.747Z,9.37
2022-12-25T23:35:31.227Z,8.33
2022-12-25T23:37:57.644Z,9.50
2022-12-25T23:40:24.223Z,9.43
2022-12-25T23:42:50.664Z,9.53
2022-12-25T23:45:17.268Z,9.77
2022-12-25T23:47:43.680Z,11.20
2022-12-25T23:50:10.462Z,10.33
2022-12-25T23:52:37.142Z,12.60
2022-12-25T23:55:03.767Z,10.57
2022-12-25T23:57:30.205Z,10.90
2022-12-25T23:59:56.636Z,10.90
